sensor_id;sensor_type;location;lat;lon;timestamp;P1;durP1;ratioP1;P2;durP2;ratioP2
6537;SDS011;3302;52.508;13.454;2023-03-12T00:00:46;4.17;;;1.67;;
6537;SDS011;3302;52.508;13.454;2023-03-12T00:03:12;4.10;;;1.70;;
6537;SDS011;3302;52.508;13.454;2023-03-12T00:05:38;4.77;;;2.00;;
6537;SDS011;3302;52.508;13.454;2023-03-12T00:08:05;4.07;;;1.80;;
6537;SDS011;3302;52.508;13.454;2023-03-12T00:10:32;4.03;;;1.90;;
6537;SDS011;3302;52.508;13.454;2023-03-12T00:12:59;6.90;;;1.93;;
6537;SDS011;3302;52.508;13.454;2023-03-12T00:15:24;2.77;;;1.40;;
6537;SDS011;3302;52.508;13.454;2023-03-12T00:17:51;4.43;;;1.60;;
6537;SDS011;3302;52.508;13.454;2023-03-12T00:20:17;4.40;;;1.70;;
6537;SDS011;3302;52.508;13.454;2023-03-12T00:22:43;3.63;;;1.50;;
6537;SDS011;3302;52.508;13.454;2023-03-12T00:25:10;3.50;;;1.57;;
6537;SDS011;3302;52.508;13.454;2023-03-12T00:27:39;4.33;;;1.60;;
6537;SDS011;3302;52.508;13.454;2023-03-12T00:30:05;2.37;;;1.40;;
6537;SDS011;3302;52.508;13.454;2023-03-12T00:32:32;3.17;;;1.77;;
6537;SDS011;3302;52.508;13.454;2023-03-12T00:34:58;2.77;;;1.53;;
6537;SDS011;3302;52.508;13.454;2023-03-12T00:37:24;2.83;;;1.27;;
6537;SDS011;3302;52.508;13.454;2023-03-12T00:39:50;4.47;;;1.73;;
6537;SDS011;3302;52.508;13.454;2023-03-12T00:42:17;5.93;;;1.70;;
6537;SDS011;3302;52.508;13.454;2023-03-12T00:44:43;4.00;;;1.60;;
6537;SDS011;3302;52.508;13.454;2023-03-12T00:47:09;3.03;;;1.73;;
6537;SDS011;3302;52.508;13.454;2023-03-12T00:49:35;5.43;;;1.83;;
6537;SDS011;3302;52.508;13.454;2023-03-12T00:52:01;3.10;;;1.57;;
6537;SDS011;3302;52.508;13.454;2023-03-12T00:54:29;3.27;;;1.43;;
6537;SDS011;3302;52.508;13.454;2023-03-12T00:56:55;2.63;;;1.30;;
6537;SDS011;3302;52.508;13.454;2023-03-12T00:59:21;3.50;;;1.67;;
6537;SDS011;3302;52.508;13.454;2023-03-12T01:01:47;4.40;;;2.03;;
6537;SDS011;3302;52.508;13.454;2023-03-12T01:04:13;3.17;;;1.90;;
6537;SDS011;3302;52.508;13.454;2023-03-12T01:06:39;7.97;;;2.00;;
6537;SDS011;3302;52.508;13.454;2023-03-12T01:09:06;6.30;;;1.90;;
6537;SDS011;3302;52.508;13.454;2023-03-12T01:11:33;3.53;;;1.20;;
6537;SDS011;3302;52.508;13.454;2023-03-12T01:14:00;5.30;;;1.93;;
6537;SDS011;3302;52.508;13.454;2023-03-12T01:16:26;4.03;;;1.87;;
6537;SDS011;3302;52.508;13.454;2023-03-12T01:18:57;4.40;;;1.87;;
6537;SDS011;3302;52.508;13.454;2023-03-12T01:21:25;5.37;;;1.67;;
6537;SDS011;3302;52.508;13.454;2023-03-12T01:23:52;2.97;;;1.53;;
6537;SDS011;3302;52.508;13.454;2023-03-12T01:26:18;4.13;;;1.93;;
6537;SDS011;3302;52.508;13.454;2023-03-12T01:28:44;2.40;;;1.60;;
6537;SDS011;3302;52.508;13.454;2023-03-12T01:31:11;4.33;;;1.73;;
6537;SDS011;3302;52.508;13.454;2023-03-12T01:33:39;5.80;;;1.93;;
6537;SDS011;3302;52.508;13.454;2023-03-12T01:36:11;2.73;;;1.43;;
6537;SDS011;3302;52.508;13.454;2023-03-12T01:38:41;5.30;;;1.93;;
6537;SDS011;3302;52.508;13.454;2023-03-12T01:41:07;3.50;;;1.50;;
6537;SDS011;3302;52.508;13.454;2023-03-12T01:43:34;2.73;;;1.43;;
6537;SDS011;3302;52.508;13.454;2023-03-12T01:48:54;2.63;;;1.50;;
6537;SDS011;3302;52.508;13.454;2023-03-12T01:51:29;2.27;;;1.47;;
6537;SDS011;3302;52.508;13.454;2023-03-12T01:54:00;5.10;;;1.70;;
6537;SDS011;3302;52.508;13.454;2023-03-12T01:56:29;3.73;;;1.80;;
6537;SDS011;3302;52.508;13.454;2023-03-12T01:58:59;3.23;;;1.87;;
6537;SDS011;3302;52.508;13.454;2023-03-12T02:01:30;3.77;;;1.57;;
6537;SDS011;3302;52.508;13.454;2023-03-12T02:03:55;4.47;;;1.67;;
6537;SDS011;3302;52.508;13.454;2023-03-12T02:06:35;3.20;;;1.50;;
6537;SDS011;3302;52.508;13.454;2023-03-12T02:09:05;6.27;;;1.80;;
6537;SDS011;3302;52.508;13.454;2023-03-12T02:11:31;3.00;;;1.50;;
6537;SDS011;3302;52.508;13.454;2023-03-12T02:13:57;6.80;;;1.53;;
6537;SDS011;3302;52.508;13.454;2023-03-12T02:16:23;2.77;;;1.50;;
6537;SDS011;3302;52.508;13.454;2023-03-12T02:18:50;3.97;;;1.60;;
6537;SDS011;3302;52.508;13.454;2023-03-12T02:21:20;2.60;;;2.00;;
6537;SDS011;3302;52.508;13.454;2023-03-12T02:23:56;2.33;;;1.50;;
6537;SDS011;3302;52.508;13.454;2023-03-12T02:26:25;8.10;;;1.90;;
6537;SDS011;3302;52.508;13.454;2023-03-12T02:28:53;3.20;;;1.80;;
6537;SDS011;3302;52.508;13.454;2023-03-12T02:31:21;5.13;;;1.83;;
6537;SDS011;3302;52.508;13.454;2023-03-12T02:33:50;3.17;;;1.57;;
6537;SDS011;3302;52.508;13.454;2023-03-12T02:36:18;4.03;;;1.97;;
6537;SDS011;3302;52.508;13.454;2023-03-12T02:38:45;2.67;;;1.80;;
6537;SDS011;3302;52.508;13.454;2023-03-12T02:41:23;5.20;;;1.87;;
6537;SDS011;3302;52.508;13.454;2023-03-12T02:44:03;8.63;;;2.47;;
6537;SDS011;3302;52.508;13.454;2023-03-12T02:46:43;4.87;;;1.83;;
6537;SDS011;3302;52.508;13.454;2023-03-12T02:49:10;3.27;;;1.70;;
6537;SDS011;3302;52.508;13.454;2023-03-12T02:51:37;6.67;;;1.73;;
6537;SDS011;3302;52.508;13.454;2023-03-12T02:54:04;3.70;;;1.70;;
6537;SDS011;3302;52.508;13.454;2023-03-12T02:56:30;3.67;;;2.03;;
6537;SDS011;3302;52.508;13.454;2023-03-12T02:58:56;3.10;;;1.40;;
6537;SDS011;3302;52.508;13.454;2023-03-12T03:01:22;4.17;;;1.97;;
6537;SDS011;3302;52.508;13.454;2023-03-12T03:03:48;3.33;;;1.70;;
6537;SDS011;3302;52.508;13.454;2023-03-12T03:06:15;3.63;;;2.00;;
6537;SDS011;3302;52.508;13.454;2023-03-12T03:08:41;4.30;;;1.67;;
6537;SDS011;3302;52.508;13.454;2023-03-12T03:11:07;5.60;;;2.73;;
6537;SDS011;3302;52.508;13.454;2023-03-12T03:13:33;3.37;;;1.80;;
6537;SDS011;3302;52.508;13.454;2023-03-12T03:16:00;3.83;;;2.60;;
6537;SDS011;3302;52.508;13.454;2023-03-12T03:18:26;2.67;;;1.63;;
6537;SDS011;3302;52.508;13.454;2023-03-12T03:20:56;3.77;;;1.60;;
6537;SDS011;3302;52.508;13.454;2023-03-12T03:23:24;5.27;;;1.90;;
6537;SDS011;3302;52.508;13.454;2023-03-12T03:25:50;2.40;;;1.20;;
6537;SDS011;3302;52.508;13.454;2023-03-12T03:28:19;3.70;;;1.70;;
6537;SDS011;3302;52.508;13.454;2023-03-12T03:30:47;4.50;;;2.00;;
6537;SDS011;3302;52.508;13.454;2023-03-12T03:33:13;5.73;;;2.00;;
6537;SDS011;3302;52.508;13.454;2023-03-12T03:35:39;6.77;;;1.70;;
6537;SDS011;3302;52.508;13.454;2023-03-12T03:38:05;3.00;;;1.67;;
6537;SDS011;3302;52.508;13.454;2023-03-12T03:40:31;4.47;;;1.70;;
6537;SDS011;3302;52.508;13.454;2023-03-12T03:42:57;4.27;;;2.00;;
6537;SDS011;3302;52.508;13.454;2023-03-12T03:45:23;3.87;;;1.80;;
6537;SDS011;3302;52.508;13.454;2023-03-12T03:47:49;2.53;;;1.80;;
6537;SDS011;3302;52.508;13.454;2023-03-12T03:50:14;5.33;;;1.80;;
6537;SDS011;3302;52.508;13.454;2023-03-12T03:52:40;4.53;;;1.80;;
6537;SDS011;3302;52.508;13.454;2023-03-12T03:55:06;4.20;;;2.10;;
6537;SDS011;3302;52.508;13.454;2023-03-12T03:57:32;4.53;;;2.07;;
6537;SDS011;3302;52.508;13.454;2023-03-12T03:59:58;4.20;;;1.90;;
6537;SDS011;3302;52.508;13.454;2023-03-12T04:02:25;6.10;;;2.20;;
6537;SDS011;3302;52.508;13.454;2023-03-12T04:04:56;4.67;;;2.13;;
6537;SDS011;3302;52.508;13.454;2023-03-12T04:07:22;5.23;;;1.97;;
6537;SDS011;3302;52.508;13.454;2023-03-12T04:09:49;3.80;;;2.20;;
6537;SDS011;3302;52.508;13.454;2023-03-12T04:12:15;7.07;;;2.20;;
6537;SDS011;3302;52.508;13.454;2023-03-12T04:14:41;3.57;;;2.00;;
6537;SDS011;3302;52.508;13.454;2023-03-12T04:17:07;4.27;;;2.00;;
6537;SDS011;3302;52.508;13.454;2023-03-12T04:19:33;5.83;;;2.20;;
6537;SDS011;3302;52.508;13.454;2023-03-12T04:21:59;3.53;;;2.30;;
6537;SDS011;3302;52.508;13.454;2023-03-12T04:24:25;3.87;;;2.30;;
6537;SDS011;3302;52.508;13.454;2023-03-12T04:26:51;3.47;;;2.23;;
6537;SDS011;3302;52.508;13.454;2023-03-12T04:29:17;4.63;;;2.30;;
6537;SDS011;3302;52.508;13.454;2023-03-12T04:31:43;3.53;;;2.23;;
6537;SDS011;3302;52.508;13.454;2023-03-12T04:34:10;3.13;;;2.30;;
6537;SDS011;3302;52.508;13.454;2023-03-12T04:36:37;4.63;;;2.53;;
6537;SDS011;3302;52.508;13.454;2023-03-12T04:39:03;5.33;;;2.80;;
6537;SDS011;3302;52.508;13.454;2023-03-12T04:41:32;6.70;;;2.97;;
6537;SDS011;3302;52.508;13.454;2023-03-12T04:43:59;3.80;;;2.40;;
6537;SDS011;3302;52.508;13.454;2023-03-12T04:46:25;8.57;;;2.53;;
6537;SDS011;3302;52.508;13.454;2023-03-12T04:48:51;4.33;;;2.40;;
6537;SDS011;3302;52.508;13.454;2023-03-12T04:51:17;4.23;;;2.67;;
6537;SDS011;3302;52.508;13.454;2023-03-12T04:53:43;4.07;;;2.57;;
6537;SDS011;3302;52.508;13.454;2023-03-12T04:56:09;4.70;;;2.67;;
6537;SDS011;3302;52.508;13.454;2023-03-12T04:58:35;4.37;;;2.83;;
6537;SDS011;3302;52.508;13.454;2023-03-12T05:01:00;5.37;;;2.87;;
6537;SDS011;3302;52.508;13.454;2023-03-12T05:03:27;5.87;;;3.33;;
6537;SDS011;3302;52.508;13.454;2023-03-12T05:05:53;4.60;;;3.03;;
6537;SDS011;3302;52.508;13.454;2023-03-12T05:08:18;5.47;;;3.23;;
6537;SDS011;3302;52.508;13.454;2023-03-12T05:10:44;5.57;;;2.93;;
6537;SDS011;3302;52.508;13.454;2023-03-12T05:13:17;4.63;;;3.60;;
6537;SDS011;3302;52.508;13.454;2023-03-12T05:15:46;7.70;;;3.33;;
6537;SDS011;3302;52.508;13.454;2023-03-12T05:18:14;4.70;;;3.00;;
6537;SDS011;3302;52.508;13.454;2023-03-12T05:20:40;6.70;;;3.77;;
6537;SDS011;3302;52.508;13.454;2023-03-12T05:23:06;4.60;;;2.93;;
6537;SDS011;3302;52.508;13.454;2023-03-12T05:25:32;6.20;;;3.60;;
6537;SDS011;3302;52.508;13.454;2023-03-12T05:27:58;5.30;;;3.20;;
6537;SDS011;3302;52.508;13.454;2023-03-12T05:30:24;6.30;;;3.00;;
6537;SDS011;3302;52.508;13.454;2023-03-12T05:32:50;7.00;;;3.30;;
6537;SDS011;3302;52.508;13.454;2023-03-12T05:35:15;5.00;;;3.37;;
6537;SDS011;3302;52.508;13.454;2023-03-12T05:37:41;7.50;;;3.80;;
6537;SDS011;3302;52.508;13.454;2023-03-12T05:40:10;4.37;;;3.00;;
6537;SDS011;3302;52.508;13.454;2023-03-12T05:42:37;6.30;;;3.30;;
6537;SDS011;3302;52.508;13.454;2023-03-12T05:45:03;4.53;;;3.20;;
6537;SDS011;3302;52.508;13.454;2023-03-12T05:47:30;4.53;;;3.03;;
6537;SDS011;3302;52.508;13.454;2023-03-12T05:49:55;5.77;;;3.63;;
6537;SDS011;3302;52.508;13.454;2023-03-12T05:52:21;5.17;;;3.60;;
6537;SDS011;3302;52.508;13.454;2023-03-12T05:54:47;5.03;;;3.10;;
6537;SDS011;3302;52.508;13.454;2023-03-12T05:57:13;6.23;;;3.30;;
6537;SDS011;3302;52.508;13.454;2023-03-12T05:59:38;5.83;;;3.17;;
6537;SDS011;3302;52.508;13.454;2023-03-12T06:02:04;5.37;;;2.97;;
6537;SDS011;3302;52.508;13.454;2023-03-12T06:04:30;6.37;;;2.83;;
6537;SDS011;3302;52.508;13.454;2023-03-12T06:06:56;6.27;;;2.70;;
6537;SDS011;3302;52.508;13.454;2023-03-12T06:09:22;3.90;;;2.60;;
6537;SDS011;3302;52.508;13.454;2023-03-12T06:11:47;7.87;;;2.90;;
6537;SDS011;3302;52.508;13.454;2023-03-12T06:14:13;4.50;;;2.30;;
6537;SDS011;3302;52.508;13.454;2023-03-12T06:16:39;6.30;;;2.77;;
6537;SDS011;3302;52.508;13.454;2023-03-12T06:19:05;3.53;;;2.40;;
6537;SDS011;3302;52.508;13.454;2023-03-12T06:21:32;7.03;;;2.80;;
6537;SDS011;3302;52.508;13.454;2023-03-12T06:24:00;4.23;;;2.33;;
6537;SDS011;3302;52.508;13.454;2023-03-12T06:26:26;4.97;;;2.60;;
6537;SDS011;3302;52.508;13.454;2023-03-12T06:28:52;6.40;;;2.60;;
6537;SDS011;3302;52.508;13.454;2023-03-12T06:31:19;4.63;;;2.37;;
6537;SDS011;3302;52.508;13.454;2023-03-12T06:33:46;4.13;;;2.23;;
6537;SDS011;3302;52.508;13.454;2023-03-12T06:36:12;3.83;;;2.13;;
6537;SDS011;3302;52.508;13.454;2023-03-12T06:38:38;4.20;;;2.37;;
6537;SDS011;3302;52.508;13.454;2023-03-12T06:41:14;4.83;;;2.30;;
6537;SDS011;3302;52.508;13.454;2023-03-12T06:43:42;5.93;;;2.53;;
6537;SDS011;3302;52.508;13.454;2023-03-12T06:46:10;4.80;;;2.57;;
6537;SDS011;3302;52.508;13.454;2023-03-12T06:48:38;3.47;;;2.23;;
6537;SDS011;3302;52.508;13.454;2023-03-12T06:51:09;4.50;;;2.70;;
6537;SDS011;3302;52.508;13.454;2023-03-12T06:53:36;4.13;;;2.30;;
6537;SDS011;3302;52.508;13.454;2023-03-12T06:56:02;4.73;;;2.43;;
6537;SDS011;3302;52.508;13.454;2023-03-12T06:58:28;6.40;;;2.83;;
6537;SDS011;3302;52.508;13.454;2023-03-12T07:00:54;2.80;;;2.10;;
6537;SDS011;3302;52.508;13.454;2023-03-12T07:03:20;3.57;;;2.60;;
6537;SDS011;3302;52.508;13.454;2023-03-12T07:05:46;5.93;;;2.43;;
6537;SDS011;3302;52.508;13.454;2023-03-12T07:08:14;4.47;;;2.50;;
6537;SDS011;3302;52.508;13.454;2023-03-12T07:10:41;8.43;;;2.57;;
6537;SDS011;3302;52.508;13.454;2023-03-12T07:13:07;6.07;;;2.87;;
6537;SDS011;3302;52.508;13.454;2023-03-12T07:15:33;4.47;;;2.47;;
6537;SDS011;3302;52.508;13.454;2023-03-12T07:17:59;4.63;;;2.60;;
6537;SDS011;3302;52.508;13.454;2023-03-12T07:20:25;5.20;;;2.50;;
6537;SDS011;3302;52.508;13.454;2023-03-12T07:22:51;4.70;;;2.47;;
6537;SDS011;3302;52.508;13.454;2023-03-12T07:25:17;3.53;;;2.80;;
6537;SDS011;3302;52.508;13.454;2023-03-12T07:27:43;5.83;;;3.47;;
6537;SDS011;3302;52.508;13.454;2023-03-12T07:30:09;4.07;;;2.90;;
6537;SDS011;3302;52.508;13.454;2023-03-12T07:32:35;3.30;;;2.57;;
6537;SDS011;3302;52.508;13.454;2023-03-12T07:35:02;11.70;;;2.90;;
6537;SDS011;3302;52.508;13.454;2023-03-12T07:37:28;3.63;;;2.40;;
6537;SDS011;3302;52.508;13.454;2023-03-12T07:39:54;4.33;;;2.53;;
6537;SDS011;3302;52.508;13.454;2023-03-12T07:42:20;3.37;;;2.47;;
6537;SDS011;3302;52.508;13.454;2023-03-12T07:44:46;4.40;;;2.33;;
6537;SDS011;3302;52.508;13.454;2023-03-12T07:47:12;5.57;;;2.40;;
6537;SDS011;3302;52.508;13.454;2023-03-12T07:49:38;7.07;;;2.50;;
6537;SDS011;3302;52.508;13.454;2023-03-12T07:52:08;6.57;;;2.83;;
6537;SDS011;3302;52.508;13.454;2023-03-12T07:54:36;4.30;;;2.90;;
6537;SDS011;3302;52.508;13.454;2023-03-12T07:57:02;5.57;;;2.50;;
6537;SDS011;3302;52.508;13.454;2023-03-12T07:59:29;6.17;;;2.50;;
6537;SDS011;3302;52.508;13.454;2023-03-12T08:01:54;4.03;;;2.30;;
6537;SDS011;3302;52.508;13.454;2023-03-12T08:04:20;5.47;;;2.80;;
6537;SDS011;3302;52.508;13.454;2023-03-12T08:06:46;3.63;;;2.43;;
6537;SDS011;3302;52.508;13.454;2023-03-12T08:09:12;4.07;;;2.20;;
6537;SDS011;3302;52.508;13.454;2023-03-12T08:11:38;3.50;;;2.30;;
6537;SDS011;3302;52.508;13.454;2023-03-12T08:14:03;4.07;;;2.73;;
6537;SDS011;3302;52.508;13.454;2023-03-12T08:16:29;4.87;;;2.47;;
6537;SDS011;3302;52.508;13.454;2023-03-12T08:18:55;7.27;;;2.40;;
6537;SDS011;3302;52.508;13.454;2023-03-12T08:21:21;3.80;;;2.17;;
6537;SDS011;3302;52.508;13.454;2023-03-12T08:23:47;5.37;;;2.30;;
6537;SDS011;3302;52.508;13.454;2023-03-12T08:26:13;3.90;;;2.40;;
6537;SDS011;3302;52.508;13.454;2023-03-12T08:28:39;6.43;;;2.23;;
6537;SDS011;3302;52.508;13.454;2023-03-12T08:31:04;8.17;;;5.03;;
6537;SDS011;3302;52.508;13.454;2023-03-12T08:33:31;6.57;;;4.07;;
6537;SDS011;3302;52.508;13.454;2023-03-12T08:35:56;4.37;;;2.37;;
6537;SDS011;3302;52.508;13.454;2023-03-12T08:38:22;5.30;;;2.43;;
6537;SDS011;3302;52.508;13.454;2023-03-12T08:40:55;4.53;;;2.40;;
6537;SDS011;3302;52.508;13.454;2023-03-12T08:43:22;5.27;;;2.37;;
6537;SDS011;3302;52.508;13.454;2023-03-12T08:45:58;3.37;;;2.20;;
6537;SDS011;3302;52.508;13.454;2023-03-12T08:48:25;4.53;;;2.40;;
6537;SDS011;3302;52.508;13.454;2023-03-12T08:50:59;4.67;;;2.17;;
6537;SDS011;3302;52.508;13.454;2023-03-12T08:53:28;10.73;;;6.97;;
6537;SDS011;3302;52.508;13.454;2023-03-12T08:55:55;11.63;;;8.23;;
6537;SDS011;3302;52.508;13.454;2023-03-12T08:58:22;5.23;;;2.80;;
6537;SDS011;3302;52.508;13.454;2023-03-12T09:00:52;3.97;;;2.13;;
6537;SDS011;3302;52.508;13.454;2023-03-12T09:03:18;3.13;;;2.20;;
6537;SDS011;3302;52.508;13.454;2023-03-12T09:05:46;4.53;;;2.63;;
6537;SDS011;3302;52.508;13.454;2023-03-12T09:08:12;3.40;;;2.13;;
6537;SDS011;3302;52.508;13.454;2023-03-12T09:10:39;3.93;;;2.40;;
6537;SDS011;3302;52.508;13.454;2023-03-12T09:13:05;4.93;;;2.20;;
6537;SDS011;3302;52.508;13.454;2023-03-12T09:15:32;3.97;;;2.37;;
6537;SDS011;3302;52.508;13.454;2023-03-12T09:17:58;3.87;;;2.13;;
6537;SDS011;3302;52.508;13.454;2023-03-12T09:20:24;2.53;;;1.77;;
6537;SDS011;3302;52.508;13.454;2023-03-12T09:22:50;2.97;;;2.00;;
6537;SDS011;3302;52.508;13.454;2023-03-12T09:25:15;3.53;;;1.83;;
6537;SDS011;3302;52.508;13.454;2023-03-12T09:27:42;4.30;;;1.80;;
6537;SDS011;3302;52.508;13.454;2023-03-12T09:30:11;2.13;;;1.60;;
6537;SDS011;3302;52.508;13.454;2023-03-12T09:32:42;1.80;;;1.30;;
6537;SDS011;3302;52.508;13.454;2023-03-12T09:35:12;2.97;;;1.50;;
6537;SDS011;3302;52.508;13.454;2023-03-12T09:37:40;4.17;;;2.00;;
6537;SDS011;3302;52.508;13.454;2023-03-12T09:40:06;3.83;;;1.80;;
6537;SDS011;3302;52.508;13.454;2023-03-12T09:45:21;2.70;;;1.60;;
6537;SDS011;3302;52.508;13.454;2023-03-12T09:47:56;3.77;;;1.90;;
6537;SDS011;3302;52.508;13.454;2023-03-12T09:50:28;2.43;;;1.63;;
6537;SDS011;3302;52.508;13.454;2023-03-12T09:52:57;4.13;;;1.70;;
6537;SDS011;3302;52.508;13.454;2023-03-12T09:55:26;4.73;;;1.50;;
6537;SDS011;3302;52.508;13.454;2023-03-12T09:57:56;4.63;;;2.00;;
6537;SDS011;3302;52.508;13.454;2023-03-12T10:00:25;2.53;;;1.33;;
6537;SDS011;3302;52.508;13.454;2023-03-12T10:05:42;4.23;;;1.70;;
6537;SDS011;3302;52.508;13.454;2023-03-12T10:23:18;2.13;;;1.10;;
6537;SDS011;3302;52.508;13.454;2023-03-12T10:25:50;3.33;;;1.40;;
6537;SDS011;3302;52.508;13.454;2023-03-12T10:31:24;3.80;;;1.60;;
6537;SDS011;3302;52.508;13.454;2023-03-12T10:34:02;4.07;;;1.67;;
6537;SDS011;3302;52.508;13.454;2023-03-12T10:36:41;3.70;;;1.50;;
6537;SDS011;3302;52.508;13.454;2023-03-12T10:39:14;2.47;;;1.63;;
6537;SDS011;3302;52.508;13.454;2023-03-12T10:41:42;4.00;;;2.20;;
6537;SDS011;3302;52.508;13.454;2023-03-12T10:44:13;3.70;;;1.80;;
6537;SDS011;3302;52.508;13.454;2023-03-12T10:46:47;4.10;;;1.80;;
6537;SDS011;3302;52.508;13.454;2023-03-12T10:49:22;3.23;;;1.60;;
6537;SDS011;3302;52.508;13.454;2023-03-12T10:51:54;4.10;;;1.70;;
6537;SDS011;3302;52.508;13.454;2023-03-12T10:54:29;2.30;;;1.20;;
6537;SDS011;3302;52.508;13.454;2023-03-12T10:57:04;2.80;;;1.20;;
6537;SDS011;3302;52.508;13.454;2023-03-12T10:59:39;3.47;;;1.40;;
6537;SDS011;3302;52.508;13.454;2023-03-12T11:02:28;2.77;;;1.40;;
6537;SDS011;3302;52.508;13.454;2023-03-12T11:05:01;2.27;;;1.20;;
6537;SDS011;3302;52.508;13.454;2023-03-12T11:07:42;4.97;;;1.60;;
6537;SDS011;3302;52.508;13.454;2023-03-12T11:12:35;2.00;;;1.47;;
6537;SDS011;3302;52.508;13.454;2023-03-12T11:15:18;3.77;;;1.40;;
6537;SDS011;3302;52.508;13.454;2023-03-12T11:17:47;4.40;;;1.77;;
6537;SDS011;3302;52.508;13.454;2023-03-12T11:20:27;3.70;;;1.37;;
6537;SDS011;3302;52.508;13.454;2023-03-12T11:22:54;4.30;;;1.67;;
6537;SDS011;3302;52.508;13.454;2023-03-12T11:25:23;4.23;;;1.97;;
6537;SDS011;3302;52.508;13.454;2023-03-12T11:27:54;4.80;;;1.80;;
6537;SDS011;3302;52.508;13.454;2023-03-12T11:30:26;3.00;;;1.90;;
6537;SDS011;3302;52.508;13.454;2023-03-12T11:32:59;3.50;;;2.00;;
6537;SDS011;3302;52.508;13.454;2023-03-12T11:35:32;3.10;;;2.03;;
6537;SDS011;3302;52.508;13.454;2023-03-12T11:51:52;3.87;;;2.20;;
6537;SDS011;3302;52.508;13.454;2023-03-12T11:56:55;3.33;;;2.33;;
6537;SDS011;3302;52.508;13.454;2023-03-12T12:05:20;3.93;;;1.90;;
6537;SDS011;3302;52.508;13.454;2023-03-12T12:13:09;3.37;;;2.10;;
6537;SDS011;3302;52.508;13.454;2023-03-12T12:26:37;3.63;;;1.93;;
6537;SDS011;3302;52.508;13.454;2023-03-12T12:32:06;4.47;;;1.90;;
6537;SDS011;3302;52.508;13.454;2023-03-12T12:45:43;2.73;;;1.70;;
6537;SDS011;3302;52.508;13.454;2023-03-12T12:48:19;8.07;;;2.20;;
6537;SDS011;3302;52.508;13.454;2023-03-12T12:50:45;3.37;;;2.23;;
6537;SDS011;3302;52.508;13.454;2023-03-12T12:53:24;4.57;;;2.40;;
6537;SDS011;3302;52.508;13.454;2023-03-12T13:01:28;3.97;;;2.17;;
6537;SDS011;3302;52.508;13.454;2023-03-12T13:03:56;4.53;;;2.03;;
6537;SDS011;3302;52.508;13.454;2023-03-12T13:06:51;2.37;;;1.90;;
6537;SDS011;3302;52.508;13.454;2023-03-12T13:09:19;3.20;;;1.97;;
6537;SDS011;3302;52.508;13.454;2023-03-12T13:11:47;3.40;;;1.80;;
6537;SDS011;3302;52.508;13.454;2023-03-12T13:14:18;5.30;;;1.80;;
6537;SDS011;3302;52.508;13.454;2023-03-12T13:16:46;2.83;;;1.70;;
6537;SDS011;3302;52.508;13.454;2023-03-12T13:29:19;2.83;;;2.10;;
6537;SDS011;3302;52.508;13.454;2023-03-12T13:32:07;3.50;;;1.80;;
6537;SDS011;3302;52.508;13.454;2023-03-12T13:34:55;3.80;;;1.93;;
6537;SDS011;3302;52.508;13.454;2023-03-12T13:37:29;4.03;;;2.50;;
6537;SDS011;3302;52.508;13.454;2023-03-12T13:45:57;2.87;;;1.80;;
6537;SDS011;3302;52.508;13.454;2023-03-12T13:48:43;4.37;;;1.70;;
6537;SDS011;3302;52.508;13.454;2023-03-12T13:51:14;4.10;;;1.70;;
6537;SDS011;3302;52.508;13.454;2023-03-12T13:53:42;1.83;;;1.50;;
6537;SDS011;3302;52.508;13.454;2023-03-12T13:56:18;4.77;;;1.90;;
6537;SDS011;3302;52.508;13.454;2023-03-12T13:59:02;5.03;;;1.60;;
6537;SDS011;3302;52.508;13.454;2023-03-12T14:01:31;3.80;;;1.50;;
6537;SDS011;3302;52.508;13.454;2023-03-12T14:04:09;2.07;;;1.20;;
6537;SDS011;3302;52.508;13.454;2023-03-12T14:09:28;2.03;;;1.33;;
6537;SDS011;3302;52.508;13.454;2023-03-12T14:12:18;2.70;;;1.30;;
6537;SDS011;3302;52.508;13.454;2023-03-12T14:17:26;2.70;;;1.50;;
6537;SDS011;3302;52.508;13.454;2023-03-12T14:20:26;2.20;;;1.00;;
6537;SDS011;3302;52.508;13.454;2023-03-12T14:22:51;1.63;;;1.40;;
6537;SDS011;3302;52.508;13.454;2023-03-12T14:28:02;4.43;;;1.40;;
6537;SDS011;3302;52.508;13.454;2023-03-12T14:30:38;1.47;;;1.10;;
6537;SDS011;3302;52.508;13.454;2023-03-12T14:33:05;2.93;;;1.50;;
6537;SDS011;3302;52.508;13.454;2023-03-12T14:35:45;2.10;;;1.50;;
6537;SDS011;3302;52.508;13.454;2023-03-12T14:38:38;3.67;;;1.63;;
6537;SDS011;3302;52.508;13.454;2023-03-12T14:41:08;3.10;;;1.30;;
6537;SDS011;3302;52.508;13.454;2023-03-12T14:43:45;2.03;;;1.33;;
6537;SDS011;3302;52.508;13.454;2023-03-12T14:46:17;2.53;;;1.50;;
6537;SDS011;3302;52.508;13.454;2023-03-12T14:48:51;3.07;;;1.60;;
6537;SDS011;3302;52.508;13.454;2023-03-12T14:51:20;2.90;;;1.60;;
6537;SDS011;3302;52.508;13.454;2023-03-12T14:53:49;3.23;;;1.30;;
6537;SDS011;3302;52.508;13.454;2023-03-12T14:56:25;3.63;;;1.83;;
6537;SDS011;3302;52.508;13.454;2023-03-12T14:58:59;7.07;;;3.13;;
6537;SDS011;3302;52.508;13.454;2023-03-12T15:01:31;4.23;;;1.50;;
6537;SDS011;3302;52.508;13.454;2023-03-12T15:03:59;2.83;;;1.40;;
6537;SDS011;3302;52.508;13.454;2023-03-12T15:06:37;1.87;;;1.10;;
6537;SDS011;3302;52.508;13.454;2023-03-12T15:09:12;1.33;;;1.10;;
6537;SDS011;3302;52.508;13.454;2023-03-12T15:11:42;4.13;;;1.30;;
6537;SDS011;3302;52.508;13.454;2023-03-12T15:14:12;5.00;;;1.50;;
6537;SDS011;3302;52.508;13.454;2023-03-12T15:16:40;2.30;;;1.27;;
6537;SDS011;3302;52.508;13.454;2023-03-12T15:19:10;2.47;;;1.37;;
6537;SDS011;3302;52.508;13.454;2023-03-12T15:21:38;3.30;;;1.33;;
6537;SDS011;3302;52.508;13.454;2023-03-12T15:24:04;1.20;;;1.10;;
6537;SDS011;3302;52.508;13.454;2023-03-12T15:26:33;2.70;;;1.50;;
6537;SDS011;3302;52.508;13.454;2023-03-12T15:31:39;7.60;;;2.30;;
6537;SDS011;3302;52.508;13.454;2023-03-12T15:34:07;3.00;;;1.27;;
6537;SDS011;3302;52.508;13.454;2023-03-12T15:36:34;3.70;;;1.53;;
6537;SDS011;3302;52.508;13.454;2023-03-12T15:39:22;3.77;;;1.90;;
6537;SDS011;3302;52.508;13.454;2023-03-12T15:41:51;3.17;;;1.63;;
6537;SDS011;3302;52.508;13.454;2023-03-12T15:46:52;5.67;;;1.70;;
6537;SDS011;3302;52.508;13.454;2023-03-12T15:49:24;1.50;;;1.30;;
6537;SDS011;3302;52.508;13.454;2023-03-12T15:51:57;2.33;;;1.30;;
6537;SDS011;3302;52.508;13.454;2023-03-12T15:57:43;2.97;;;1.70;;
6537;SDS011;3302;52.508;13.454;2023-03-12T16:02:50;4.27;;;1.83;;
6537;SDS011;3302;52.508;13.454;2023-03-12T16:05:19;3.77;;;2.03;;
6537;SDS011;3302;52.508;13.454;2023-03-12T16:07:48;2.90;;;1.90;;
6537;SDS011;3302;52.508;13.454;2023-03-12T16:10:15;4.17;;;1.97;;
6537;SDS011;3302;52.508;13.454;2023-03-12T16:12:43;4.20;;;2.30;;
6537;SDS011;3302;52.508;13.454;2023-03-12T16:15:28;5.50;;;2.20;;
6537;SDS011;3302;52.508;13.454;2023-03-12T16:17:56;3.30;;;2.20;;
6537;SDS011;3302;52.508;13.454;2023-03-12T16:20:22;3.70;;;2.03;;
6537;SDS011;3302;52.508;13.454;2023-03-12T16:22:48;4.07;;;2.60;;
6537;SDS011;3302;52.508;13.454;2023-03-12T16:25:14;4.87;;;2.50;;
6537;SDS011;3302;52.508;13.454;2023-03-12T16:27:44;4.13;;;2.20;;
6537;SDS011;3302;52.508;13.454;2023-03-12T16:30:17;3.77;;;2.20;;
6537;SDS011;3302;52.508;13.454;2023-03-12T16:32:46;2.70;;;2.20;;
6537;SDS011;3302;52.508;13.454;2023-03-12T16:35:18;4.13;;;2.80;;
6537;SDS011;3302;52.508;13.454;2023-03-12T16:37:44;4.80;;;2.20;;
6537;SDS011;3302;52.508;13.454;2023-03-12T16:40:11;3.63;;;2.30;;
6537;SDS011;3302;52.508;13.454;2023-03-12T16:42:39;3.83;;;2.37;;
6537;SDS011;3302;52.508;13.454;2023-03-12T16:45:08;6.50;;;2.30;;
6537;SDS011;3302;52.508;13.454;2023-03-12T16:47:37;5.07;;;2.47;;
6537;SDS011;3302;52.508;13.454;2023-03-12T16:50:14;4.43;;;2.40;;
6537;SDS011;3302;52.508;13.454;2023-03-12T16:52:42;5.70;;;2.73;;
6537;SDS011;3302;52.508;13.454;2023-03-12T16:55:14;3.43;;;2.60;;
6537;SDS011;3302;52.508;13.454;2023-03-12T16:57:48;4.70;;;2.43;;
6537;SDS011;3302;52.508;13.454;2023-03-12T17:00:20;4.60;;;2.70;;
6537;SDS011;3302;52.508;13.454;2023-03-12T17:02:48;5.93;;;3.70;;
6537;SDS011;3302;52.508;13.454;2023-03-12T17:05:16;9.70;;;3.80;;
6537;SDS011;3302;52.508;13.454;2023-03-12T17:07:42;5.60;;;3.50;;
6537;SDS011;3302;52.508;13.454;2023-03-12T17:10:08;5.40;;;2.80;;
6537;SDS011;3302;52.508;13.454;2023-03-12T17:12:41;4.80;;;2.90;;